sensor_id;sensor_type;location;lat;lon;timestamp;pressure;altitude;pressure_sealevel;temperature;humidity
14295;BME280;7231;59.370;18.016;2023-07-31T00:01:01;100067.63;;;15.95;100.00
14295;BME280;7231;59.370;18.016;2023-07-31T00:03:29;100062.38;;;15.94;100.00
14295;BME280;7231;59.370;18.016;2023-07-31T00:05:57;100065.00;;;15.94;100.00
14295;BME280;7231;59.370;18.016;2023-07-31T00:08:25;100065.00;;;15.92;100.00
14295;BME280;7231;59.370;18.016;2023-07-31T00:10:53;100065.91;;;15.89;100.00
14295;BME280;7231;59.370;18.016;2023-07-31T00:13:21;100062.38;;;15.89;100.00
14295;BME280;7231;59.370;18.016;2023-07-31T00:15:49;100059.75;;;15.87;100.00
14295;BME280;7231;59.370;18.016;2023-07-31T00:18:18;100060.66;;;15.86;100.00
14295;BME280;7231;59.370;18.016;2023-07-31T00:20:47;100046.59;;;15.80;100.00
14295;BME280;7231;59.370;18.016;2023-07-31T00:23:15;100056.25;;;15.84;100.00
14295;BME280;7231;59.370;18.016;2023-07-31T00:25:43;100043.13;;;15.67;100.00
14295;BME280;7231;59.370;18.016;2023-07-31T00:28:10;100066.00;;;15.74;100.00
14295;BME280;7231;59.370;18.016;2023-07-31T00:30:39;100058.09;;;15.68;100.00
14295;BME280;7231;59.370;18.016;2023-07-31T00:33:07;100073.09;;;15.65;100.00
14295;BME280;7231;59.370;18.016;2023-07-31T00:35:36;100064.31;;;15.61;100.00
14295;BME280;7231;59.370;18.016;2023-07-31T00:38:04;100040.56;;;15.53;100.00
14295;BME280;7231;59.370;18.016;2023-07-31T00:40:34;100054.59;;;15.65;100.00
14295;BME280;7231;59.370;18.016;2023-07-31T00:43:03;100059.91;;;15.62;100.00
14295;BME280;7231;59.370;18.016;2023-07-31T00:45:32;100053.69;;;15.70;100.00
14295;BME280;7231;59.370;18.016;2023-07-31T00:48:01;100058.94;;;15.73;100.00
14295;BME280;7231;59.370;18.016;2023-07-31T00:50:30;100051.91;;;15.72;100.00
14295;BME280;7231;59.370;18.016;2023-07-31T00:52:59;100053.69;;;15.72;100.00
14295;BME280;7231;59.370;18.016;2023-07-31T00:55:27;100058.06;;;15.73;100.00
14295;BME280;7231;59.370;18.016;2023-07-31T00:57:56;100051.94;;;15.68;100.00
14295;BME280;7231;59.370;18.016;2023-07-31T01:00:24;100065.09;;;15.77;100.00
14295;BME280;7231;59.370;18.016;2023-07-31T01:02:52;100060.69;;;15.77;100.00
14295;BME280;7231;59.370;18.016;2023-07-31T01:05:25;100060.69;;;15.77;100.00
14295;BME280;7231;59.370;18.016;2023-07-31T01:08:04;100064.22;;;15.76;100.00
14295;BME280;7231;59.370;18.016;2023-07-31T01:10:38;100066.00;;;15.74;100.00
14295;BME280;7231;59.370;18.016;2023-07-31T01:13:09;100063.38;;;15.73;100.00
14295;BME280;7231;59.370;18.016;2023-07-31T01:15:38;100066.88;;;15.72;100.00
14295;BME280;7231;59.370;18.016;2023-07-31T01:18:06;100060.75;;;15.68;100.00
14295;BME280;7231;59.370;18.016;2023-07-31T01:20:34;100058.09;;;15.67;100.00
14295;BME280;7231;59.370;18.016;2023-07-31T01:23:31;100055.47;;;15.65;100.00
14295;BME280;7231;59.370;18.016;2023-07-31T01:26:11;100048.44;;;15.63;100.00
14295;BME280;7231;59.370;18.016;2023-07-31T01:28:53;100043.16;;;15.61;100.00
14295;BME280;7231;59.370;18.016;2023-07-31T01:31:26;100052.88;;;15.56;100.00
14295;BME280;7231;59.370;18.016;2023-07-31T01:33:59;100058.19;;;15.53;100.00
14295;BME280;7231;59.370;18.016;2023-07-31T01:36:28;100036.19;;;15.45;100.00
14295;BME280;7231;59.370;18.016;2023-07-31T01:38:58;100018.59;;;15.41;100.00
14295;BME280;7231;59.370;18.016;2023-07-31T01:41:28;100019.50;;;15.38;100.00
14295;BME280;7231;59.370;18.016;2023-07-31T01:43:56;100044.06;;;15.54;100.00
14295;BME280;7231;59.370;18.016;2023-07-31T01:46:24;100053.78;;;15.58;100.00
14295;BME280;7231;59.370;18.016;2023-07-31T01:48:52;100044.91;;;15.62;100.00
14295;BME280;7231;59.370;18.016;2023-07-31T01:51:20;100044.03;;;15.62;100.00
14295;BME280;7231;59.370;18.016;2023-07-31T01:53:48;100037.91;;;15.56;100.00
14295;BME280;7231;59.370;18.016;2023-07-31T01:56:16;100040.56;;;15.53;100.00
14295;BME280;7231;59.370;18.016;2023-07-31T01:58:45;100053.75;;;15.55;100.00
14295;BME280;7231;59.370;18.016;2023-07-31T02:01:13;100041.44;;;15.51;100.00
14295;BME280;7231;59.370;18.016;2023-07-31T02:03:41;100045.84;;;15.58;100.00
14295;BME280;7231;59.370;18.016;2023-07-31T02:06:10;100041.44;;;15.60;100.00
14295;BME280;7231;59.370;18.016;2023-07-31T02:08:38;100040.50;;;15.67;100.00
14295;BME280;7231;59.370;18.016;2023-07-31T02:11:06;100040.47;;;15.72;100.00
14295;BME280;7231;59.370;18.016;2023-07-31T02:13:34;100043.09;;;15.76;100.00
14295;BME280;7231;59.370;18.016;2023-07-31T02:16:03;100037.78;;;15.76;100.00
14295;BME280;7231;59.370;18.016;2023-07-31T02:18:31;100036.03;;;15.77;100.00
14295;BME280;7231;59.370;18.016;2023-07-31T02:20:59;100013.19;;;15.67;100.00
14295;BME280;7231;59.370;18.016;2023-07-31T02:23:27;100036.91;;;15.76;100.00
14295;BME280;7231;59.370;18.016;2023-07-31T02:25:55;100036.03;;;15.75;100.00
14295;BME280;7231;59.370;18.016;2023-07-31T02:28:23;100033.41;;;15.75;100.00
14295;BME280;7231;59.370;18.016;2023-07-31T02:30:51;100030.75;;;15.77;100.00
14295;BME280;7231;59.370;18.016;2023-07-31T02:33:21;100034.25;;;15.77;100.00
14295;BME280;7231;59.370;18.016;2023-07-31T02:35:49;100022.78;;;15.80;100.00
14295;BME280;7231;59.370;18.016;2023-07-31T02:38:17;100028.97;;;15.80;100.00
14295;BME280;7231;59.370;18.016;2023-07-31T02:40:45;100023.66;;;15.80;100.00
14295;BME280;7231;59.370;18.016;2023-07-31T02:43:13;100028.09;;;15.80;100.00
14295;BME280;7231;59.370;18.016;2023-07-31T02:45:41;100022.81;;;15.78;100.00
14295;BME280;7231;59.370;18.016;2023-07-31T02:48:09;100030.75;;;15.77;100.00
14295;BME280;7231;59.370;18.016;2023-07-31T02:50:38;100029.88;;;15.75;100.00
14295;BME280;7231;59.370;18.016;2023-07-31T02:53:06;100032.53;;;15.73;100.00
14295;BME280;7231;59.370;18.016;2023-07-31T02:55:34;100030.78;;;15.72;100.00
14295;BME280;7231;59.370;18.016;2023-07-31T02:58:02;100021.94;;;15.73;100.00
14295;BME280;7231;59.370;18.016;2023-07-31T03:00:30;100022.84;;;15.72;100.00
14295;BME280;7231;59.370;18.016;2023-07-31T03:02:58;100025.47;;;15.74;100.00
14295;BME280;7231;59.370;18.016;2023-07-31T03:05:26;100018.41;;;15.74;100.00
14295;BME280;7231;59.370;18.016;2023-07-31T03:07:55;100022.84;;;15.74;100.00
14295;BME280;7231;59.370;18.016;2023-07-31T03:10:23;100020.19;;;15.74;100.00
14295;BME280;7231;59.370;18.016;2023-07-31T03:12:51;100021.06;;;15.73;100.00
14295;BME280;7231;59.370;18.016;2023-07-31T03:15:19;100028.13;;;15.71;100.00
14295;BME280;7231;59.370;18.016;2023-07-31T03:17:47;100016.69;;;15.70;100.00
14295;BME280;7231;59.370;18.016;2023-07-31T03:20:15;100022.84;;;15.69;100.00
14295;BME280;7231;59.370;18.016;2023-07-31T03:22:45;100026.38;;;15.70;100.00
14295;BME280;7231;59.370;18.016;2023-07-31T03:25:15;100026.34;;;15.73;100.00
14295;BME280;7231;59.370;18.016;2023-07-31T03:27:43;100028.09;;;15.75;100.00
14295;BME280;7231;59.370;18.016;2023-07-31T03:30:11;100027.22;;;15.78;100.00
14295;BME280;7231;59.370;18.016;2023-07-31T03:32:39;100018.41;;;15.77;100.00
14295;BME280;7231;59.370;18.016;2023-07-31T03:35:07;100018.34;;;15.85;100.00
14295;BME280;7231;59.370;18.016;2023-07-31T03:37:35;100015.69;;;15.86;100.00
14295;BME280;7231;59.370;18.016;2023-07-31T03:40:05;100024.47;;;15.91;100.00
14295;BME280;7231;59.370;18.016;2023-07-31T03:42:34;100021.81;;;15.96;100.00
14295;BME280;7231;59.370;18.016;2023-07-31T03:45:05;100020.91;;;15.99;100.00
14295;BME280;7231;59.370;18.016;2023-07-31T03:47:34;100011.19;;;16.01;100.00
14295;BME280;7231;59.370;18.016;2023-07-31T03:50:02;100004.13;;;16.01;100.00
14295;BME280;7231;59.370;18.016;2023-07-31T03:52:30;100014.66;;;16.07;100.00
14295;BME280;7231;59.370;18.016;2023-07-31T03:54:58;100011.09;;;16.13;100.00
14295;BME280;7231;59.370;18.016;2023-07-31T03:57:26;100005.78;;;16.16;100.00
14295;BME280;7231;59.370;18.016;2023-07-31T03:59:56;99956.59;;;15.94;100.00
14295;BME280;7231;59.370;18.016;2023-07-31T04:02:24;100007.50;;;16.23;100.00
14295;BME280;7231;59.370;18.016;2023-07-31T04:04:52;100004.81;;;16.28;100.00
14295;BME280;7231;59.370;18.016;2023-07-31T04:07:20;99996.00;;;16.27;100.00
14295;BME280;7231;59.370;18.016;2023-07-31T04:09:48;100004.81;;;16.26;100.00
14295;BME280;7231;59.370;18.016;2023-07-31T04:12:16;99998.66;;;16.24;100.00
14295;BME280;7231;59.370;18.016;2023-07-31T04:14:44;99998.69;;;16.21;100.00
14295;BME280;7231;59.370;18.016;2023-07-31T04:17:13;99988.13;;;16.18;100.00
14295;BME280;7231;59.370;18.016;2023-07-31T04:19:41;99982.03;;;16.11;100.00
14295;BME280;7231;59.370;18.016;2023-07-31T04:22:09;99992.59;;;16.13;100.00
14295;BME280;7231;59.370;18.016;2023-07-31T04:24:37;99989.97;;;16.10;100.00
14295;BME280;7231;59.370;18.016;2023-07-31T04:27:06;99987.31;;;16.10;100.00
14295;BME280;7231;59.370;18.016;2023-07-31T04:29:34;99991.72;;;16.11;100.00
14295;BME280;7231;59.370;18.016;2023-07-31T04:32:02;99992.59;;;16.11;100.00
14295;BME280;7231;59.370;18.016;2023-07-31T04:34:31;99972.34;;;16.09;100.00
14295;BME280;7231;59.370;18.016;2023-07-31T04:36:59;99991.66;;;16.18;100.00
14295;BME280;7231;59.370;18.016;2023-07-31T04:39:27;99993.41;;;16.21;100.00
14295;BME280;7231;59.370;18.016;2023-07-31T04:41:55;99990.72;;;16.26;100.00
14295;BME280;7231;59.370;18.016;2023-07-31T04:44:23;99993.31;;;16.30;100.00
14295;BME280;7231;59.370;18.016;2023-07-31T04:46:51;99987.09;;;16.36;100.00
14295;BME280;7231;59.370;18.016;2023-07-31T04:49:19;99980.97;;;16.32;100.00
14295;BME280;7231;59.370;18.016;2023-07-31T04:51:49;100001.97;;;16.49;100.00
14295;BME280;7231;59.370;18.016;2023-07-31T04:54:17;100008.09;;;16.54;100.00
14295;BME280;7231;59.370;18.016;2023-07-31T04:56:45;100004.53;;;16.58;100.00
14295;BME280;7231;59.370;18.016;2023-07-31T04:59:14;100005.38;;;16.65;100.00
14295;BME280;7231;59.370;18.016;2023-07-31T05:01:42;100013.25;;;16.74;100.00
14295;BME280;7231;59.370;18.016;2023-07-31T05:04:12;99982.38;;;16.70;100.00
14295;BME280;7231;59.370;18.016;2023-07-31T05:06:40;100003.31;;;16.93;100.00
14295;BME280;7231;59.370;18.016;2023-07-31T05:09:10;99996.16;;;17.02;100.00
14295;BME280;7231;59.370;18.016;2023-07-31T05:11:38;99996.06;;;17.10;100.00
14295;BME280;7231;59.370;18.016;2023-07-31T05:14:07;99987.13;;;17.18;100.00
14295;BME280;7231;59.370;18.016;2023-07-31T05:16:35;99984.44;;;17.22;100.00
14295;BME280;7231;59.370;18.016;2023-07-31T05:19:04;99987.00;;;17.28;100.00
14295;BME280;7231;59.370;18.016;2023-07-31T05:21:32;99986.94;;;17.32;100.00
14295;BME280;7231;59.370;18.016;2023-07-31T05:23:59;99991.28;;;17.38;100.00
14295;BME280;7231;59.370;18.016;2023-07-31T05:26:29;99989.50;;;17.40;100.00
14295;BME280;7231;59.370;18.016;2023-07-31T05:28:57;99994.72;;;17.46;100.00
14295;BME280;7231;59.370;18.016;2023-07-31T05:31:25;99992.94;;;17.48;100.00
14295;BME280;7231;59.370;18.016;2023-07-31T05:33:53;99983.16;;;17.51;100.00
14295;BME280;7231;59.370;18.016;2023-07-31T05:36:21;99985.84;;;17.50;100.00
14295;BME280;7231;59.370;18.016;2023-07-31T05:38:49;99988.34;;;17.59;100.00
14295;BME280;7231;59.370;18.016;2023-07-31T05:41:17;99968.06;;;17.57;100.00
14295;BME280;7231;59.370;18.016;2023-07-31T05:43:47;99978.59;;;17.61;100.00
14295;BME280;7231;59.370;18.016;2023-07-31T05:46:15;99981.28;;;17.60;100.00
14295;BME280;7231;59.370;18.016;2023-07-31T05:48:43;99982.25;;;17.54;100.00
14295;BME280;7231;59.370;18.016;2023-07-31T05:51:11;99971.75;;;17.46;100.00
14295;BME280;7231;59.370;18.016;2023-07-31T05:53:39;99984.97;;;17.48;100.00
14295;BME280;7231;59.370;18.016;2023-07-31T05:56:07;99986.75;;;17.47;100.00
14295;BME280;7231;59.370;18.016;2023-07-31T05:58:35;99994.72;;;17.46;100.00
14295;BME280;7231;59.370;18.016;2023-07-31T06:01:05;99994.81;;;17.38;100.00
14295;BME280;7231;59.370;18.016;2023-07-31T06:03:33;99999.22;;;17.39;100.00
14295;BME280;7231;59.370;18.016;2023-07-31T06:06:01;99996.59;;;17.38;100.00
14295;BME280;7231;59.370;18.016;2023-07-31T06:08:29;100001.91;;;17.38;100.00
14295;BME280;7231;59.370;18.016;2023-07-31T06:10:58;100003.66;;;17.37;100.00
14295;BME280;7231;59.370;18.016;2023-07-31T06:13:26;100004.53;;;17.38;100.00
14295;BME280;7231;59.370;18.016;2023-07-31T06:15:54;100008.06;;;17.40;100.00
14295;BME280;7231;59.370;18.016;2023-07-31T06:18:23;100003.63;;;17.40;100.00
14295;BME280;7231;59.370;18.016;2023-07-31T06:20:51;100013.25;;;17.47;100.00
14295;BME280;7231;59.370;18.016;2023-07-31T06:23:20;100013.22;;;17.49;100.00
14295;BME280;7231;59.370;18.016;2023-07-31T06:25:48;100023.94;;;17.41;100.00
14295;BME280;7231;59.370;18.016;2023-07-31T06:28:16;100028.63;;;17.19;100.00
14295;BME280;7231;59.370;18.016;2023-07-31T06:30:44;100035.06;;;16.97;100.00
14295;BME280;7231;59.370;18.016;2023-07-31T06:33:12;100044.91;;;16.84;100.00
14295;BME280;7231;59.370;18.016;2023-07-31T06:35:42;100037.84;;;16.83;100.00
14295;BME280;7231;59.370;18.016;2023-07-31T06:38:10;100014.97;;;16.78;100.00
14295;BME280;7231;59.370;18.016;2023-07-31T06:40:38;100027.28;;;16.82;100.00
14295;BME280;7231;59.370;18.016;2023-07-31T06:43:06;100025.44;;;16.88;100.00
14295;BME280;7231;59.370;18.016;2023-07-31T06:45:35;100022.78;;;16.88;100.00
14295;BME280;7231;59.370;18.016;2023-07-31T06:48:04;100019.25;;;16.90;100.00
14295;BME280;7231;59.370;18.016;2023-07-31T06:50:32;99991.16;;;16.75;100.00
14295;BME280;7231;59.370;18.016;2023-07-31T06:53:01;100026.19;;;17.00;100.00
14295;BME280;7231;59.370;18.016;2023-07-31T06:55:29;100024.44;;;17.00;100.00
14295;BME280;7231;59.370;18.016;2023-07-31T06:57:57;100004.28;;;16.87;100.00
14295;BME280;7231;59.370;18.016;2023-07-31T07:00:27;100022.72;;;16.96;100.00
14295;BME280;7231;59.370;18.016;2023-07-31T07:02:55;100030.69;;;16.93;100.00
14295;BME280;7231;59.370;18.016;2023-07-31T07:05:23;100035.16;;;16.88;100.00
14295;BME280;7231;59.370;18.016;2023-07-31T07:07:51;100043.16;;;16.80;100.00
14295;BME280;7231;59.370;18.016;2023-07-31T07:10:21;100040.63;;;16.71;100.00
14295;BME280;7231;59.370;18.016;2023-07-31T07:12:49;100035.44;;;16.54;100.00
14295;BME280;7231;59.370;18.016;2023-07-31T07:15:17;100027.69;;;16.35;100.00
14295;BME280;7231;59.370;18.016;2023-07-31T07:17:45;100033.13;;;16.13;100.00
14295;BME280;7231;59.370;18.016;2023-07-31T07:20:13;100020.09;;;15.90;100.00
14295;BME280;7231;59.370;18.016;2023-07-31T07:22:41;100035.19;;;15.72;100.00
14295;BME280;7231;59.370;18.016;2023-07-31T07:25:09;100037.88;;;15.61;100.00
14295;BME280;7231;59.370;18.016;2023-07-31T07:27:39;100055.50;;;15.62;100.00
14295;BME280;7231;59.370;18.016;2023-07-31T07:30:07;100059.06;;;15.52;100.00
14295;BME280;7231;59.370;18.016;2023-07-31T07:32:35;100048.53;;;15.40;100.00
14295;BME280;7231;59.370;18.016;2023-07-31T07:35:04;100036.25;;;15.33;100.00
14295;BME280;7231;59.370;18.016;2023-07-31T07:37:32;100027.44;;;15.32;100.00
14295;BME280;7231;59.370;18.016;2023-07-31T07:40:00;100021.31;;;15.29;100.00
14295;BME280;7231;59.370;18.016;2023-07-31T07:42:28;100021.34;;;15.18;100.00
14295;BME280;7231;59.370;18.016;2023-07-31T07:44:58;100040.69;;;15.21;100.00
14295;BME280;7231;59.370;18.016;2023-07-31T07:47:26;100026.66;;;15.09;100.00
14295;BME280;7231;59.370;18.016;2023-07-31T07:49:55;100033.69;;;15.07;100.00
14295;BME280;7231;59.370;18.016;2023-07-31T07:52:23;100033.72;;;15.04;100.00
14295;BME280;7231;59.370;18.016;2023-07-31T07:54:51;100026.72;;;14.92;100.00
14295;BME280;7231;59.370;18.016;2023-07-31T07:57:19;100046.94;;;14.93;100.00
14295;BME280;7231;59.370;18.016;2023-07-31T07:59:47;100056.63;;;14.85;100.00
14295;BME280;7231;59.370;18.016;2023-07-31T08:02:16;100065.44;;;14.73;100.00
14295;BME280;7231;59.370;18.016;2023-07-31T08:04:44;100068.97;;;14.66;100.00
14295;BME280;7231;59.370;18.016;2023-07-31T08:07:12;100077.78;;;14.64;100.00
14295;BME280;7231;59.370;18.016;2023-07-31T08:09:40;100068.97;;;14.63;100.00
14295;BME280;7231;59.370;18.016;2023-07-31T08:12:08;100061.06;;;14.61;100.00
14295;BME280;7231;59.370;18.016;2023-07-31T08:14:36;100053.16;;;14.60;100.00
14295;BME280;7231;59.370;18.016;2023-07-31T08:17:04;100050.50;;;14.55;100.00
14295;BME280;7231;59.370;18.016;2023-07-31T08:19:34;100039.97;;;14.46;100.00
14295;BME280;7231;59.370;18.016;2023-07-31T08:22:03;100050.50;;;14.49;100.00
14295;BME280;7231;59.370;18.016;2023-07-31T08:24:31;100037.34;;;14.42;100.00
14295;BME280;7231;59.370;18.016;2023-07-31T08:26:59;100060.19;;;14.52;100.00
14295;BME280;7231;59.370;18.016;2023-07-31T08:29:27;100053.16;;;14.51;100.00
14295;BME280;7231;59.370;18.016;2023-07-31T08:31:55;100035.56;;;14.45;100.00
14295;BME280;7231;59.370;18.016;2023-07-31T08:34:23;100027.66;;;14.48;100.00
14295;BME280;7231;59.370;18.016;2023-07-31T08:36:52;99996.00;;;14.45;100.00
14295;BME280;7231;59.370;18.016;2023-07-31T08:39:20;99997.75;;;14.55;100.00
14295;BME280;7231;59.370;18.016;2023-07-31T08:41:48;99988.94;;;14.59;100.00
14295;BME280;7231;59.370;18.016;2023-07-31T08:44:17;99984.53;;;14.65;100.00
14295;BME280;7231;59.370;18.016;2023-07-31T08:46:46;99969.59;;;14.70;100.00
14295;BME280;7231;59.370;18.016;2023-07-31T08:49:16;99973.09;;;14.75;100.00
14295;BME280;7231;59.370;18.016;2023-07-31T08:51:46;99977.47;;;14.83;100.00
14295;BME280;7231;59.370;18.016;2023-07-31T08:54:18;99987.13;;;14.87;100.00
14295;BME280;7231;59.370;18.016;2023-07-31T08:56:46;99979.19;;;14.92;100.00
14295;BME280;7231;59.370;18.016;2023-07-31T08:59:15;99970.38;;;14.99;100.00
14295;BME280;7231;59.370;18.016;2023-07-31T09:01:49;99974.72;;;15.12;100.00
14295;BME280;7231;59.370;18.016;2023-07-31T09:04:19;99974.66;;;15.27;100.00
14295;BME280;7231;59.370;18.016;2023-07-31T09:06:48;99972.81;;;15.39;100.00
14295;BME280;7231;59.370;18.016;2023-07-31T09:09:17;99971.88;;;15.49;100.00
14295;BME280;7231;59.370;18.016;2023-07-31T09:11:47;99959.47;;;15.65;100.00
14295;BME280;7231;59.370;18.016;2023-07-31T09:14:17;99967.25;;;15.83;100.00
14295;BME280;7231;59.370;18.016;2023-07-31T09:16:52;99976.88;;;15.95;100.00
14295;BME280;7231;59.370;18.016;2023-07-31T09:19:29;99981.28;;;15.94;100.00
14295;BME280;7231;59.370;18.016;2023-07-31T09:21:57;99992.78;;;15.85;100.00
14295;BME280;7231;59.370;18.016;2023-07-31T09:24:27;99996.34;;;15.83;100.00
14295;BME280;7231;59.370;18.016;2023-07-31T09:26:57;100001.63;;;15.84;100.00
14295;BME280;7231;59.370;18.016;2023-07-31T09:29:26;100014.72;;;16.03;100.00
14295;BME280;7231;59.370;18.016;2023-07-31T09:31:55;99980.22;;;16.15;100.00
14295;BME280;7231;59.370;18.016;2023-07-31T09:34:29;100005.38;;;16.65;100.00
14295;BME280;7231;59.370;18.016;2023-07-31T09:37:01;100009.31;;;17.08;100.00
14295;BME280;7231;59.370;18.016;2023-07-31T09:39:31;99998.78;;;17.74;100.00
14295;BME280;7231;59.370;18.016;2023-07-31T09:42:00;99960.41;;;18.47;100.00
14295;BME280;7231;59.370;18.016;2023-07-31T09:44:38;99979.72;;;19.85;100.00
14295;BME280;7231;59.370;18.016;2023-07-31T09:47:20;99986.88;;;20.56;100.00
14295;BME280;7231;59.370;18.016;2023-07-31T09:49:51;99985.75;;;20.64;100.00
14295;BME280;7231;59.370;18.016;2023-07-31T09:52:19;99991.13;;;20.27;100.00
14295;BME280;7231;59.370;18.016;2023-07-31T09:54:48;99973.47;;;19.88;100.00
14295;BME280;7231;59.370;18.016;2023-07-31T09:57:16;99981.25;;;19.95;99.95
14295;BME280;7231;59.370;18.016;2023-07-31T09:59:47;99986.13;;;19.76;95.81
14295;BME280;7231;59.370;18.016;2023-07-31T10:02:21;99978.09;;;18.96;93.91
14295;BME280;7231;59.370;18.016;2023-07-31T10:04:50;99975.25;;;18.58;94.85
14295;BME280;7231;59.370;18.016;2023-07-31T10:07:18;99975.69;;;18.33;95.39
14295;BME280;7231;59.370;18.016;2023-07-31T10:09:49;99971.88;;;18.48;99.55
14295;BME280;7231;59.370;18.016;2023-07-31T10:12:19;99961.19;;;19.00;100.00
14295;BME280;7231;59.370;18.016;2023-07-31T10:14:49;99954.00;;;19.45;98.77
14295;BME280;7231;59.370;18.016;2023-07-31T10:17:18;99964.50;;;19.92;95.01
14295;BME280;7231;59.370;18.016;2023-07-31T10:19:48;99958.84;;;20.05;91.78
14295;BME280;7231;59.370;18.016;2023-07-31T10:22:16;99956.22;;;20.04;90.09
14295;BME280;7231;59.370;18.016;2023-07-31T10:24:46;99949.44;;;19.91;87.90
14295;BME280;7231;59.370;18.016;2023-07-31T10:27:15;99954.28;;;19.73;87.40
14295;BME280;7231;59.370;18.016;2023-07-31T10:29:44;99952.69;;;19.66;87.66
14295;BME280;7231;59.370;18.016;2023-07-31T10:32:15;99941.91;;;19.32;86.63
14295;BME280;7231;59.370;18.016;2023-07-31T10:34:45;99952.72;;;19.23;87.33
14295;BME280;7231;59.370;18.016;2023-07-31T10:37:24;99944.06;;;19.13;86.92
14295;BME280;7231;59.370;18.016;2023-07-31T10:40:00;99958.84;;;19.27;89.37
14295;BME280;7231;59.370;18.016;2023-07-31T10:42:35;99967.53;;;19.35;89.27
14295;BME280;7231;59.370;18.016;2023-07-31T10:45:05;99970.63;;;19.15;87.34
14295;BME280;7231;59.370;18.016;2023-07-31T10:47:37;99970.91;;;19.01;88.22
14295;BME280;7231;59.370;18.016;2023-07-31T10:50:13;99968.06;;;19.10;88.15
14295;BME280;7231;59.370;18.016;2023-07-31T10:52:46;99959.41;;;19.01;86.69
14295;BME280;7231;59.370;18.016;2023-07-31T10:55:28;99966.41;;;18.57;84.90
14295;BME280;7231;59.370;18.016;2023-07-31T10:58:06;99971.19;;;18.38;86.25
14295;BME280;7231;59.370;18.016;2023-07-31T11:00:37;99971.44;;;18.23;86.64
14295;BME280;7231;59.370;18.016;2023-07-31T11:03:07;99978.41;;;18.29;86.72
14295;BME280;7231;59.370;18.016;2023-07-31T11:05:48;99981.94;;;18.29;87.14
14295;BME280;7231;59.370;18.016;2023-07-31T11:08:18;99966.91;;;18.30;87.22
14295;BME280;7231;59.370;18.016;2023-07-31T11:10:48;99934.78;;;17.96;86.98
14295;BME280;7231;59.370;18.016;2023-07-31T11:13:18;99974.22;;;18.17;88.03
14295;BME280;7231;59.370;18.016;2023-07-31T11:15:46;99979.38;;;18.25;88.77
14295;BME280;7231;59.370;18.016;2023-07-31T11:18:14;99984.53;;;18.34;88.45
14295;BME280;7231;59.370;18.016;2023-07-31T11:20:43;99993.22;;;18.42;89.09
14295;BME280;7231;59.370;18.016;2023-07-31T11:23:12;100000.25;;;18.46;88.91
14295;BME280;7231;59.370;18.016;2023-07-31T11:25:40;99967.88;;;18.24;88.38
14295;BME280;7231;59.370;18.016;2023-07-31T11:28:09;100015.50;;;18.33;88.08
14295;BME280;7231;59.370;18.016;2023-07-31T11:30:40;100012.00;;;18.31;88.64
14295;BME280;7231;59.370;18.016;2023-07-31T11:33:10;100013.66;;;18.38;88.55
14295;BME280;7231;59.370;18.016;2023-07-31T11:35:43;100017.06;;;18.45;88.11
14295;BME280;7231;59.370;18.016;2023-07-31T11:38:12;100011.72;;;18.46;88.52
14295;BME280;7231;59.370;18.016;2023-07-31T11:40:48;100012.66;;;18.44;88.22
14295;BME280;7231;59.370;18.016;2023-07-31T11:43:17;100018.06;;;18.38;88.34
14295;BME280;7231;59.370;18.016;2023-07-31T11:45:49;100019.00;;;18.35;88.73
14295;BME280;7231;59.370;18.016;2023-07-31T11:48:21;100014.66;;;18.31;88.27
14295;BME280;7231;59.370;18.016;2023-07-31T11:50:51;99977.09;;;18.05;88.89
14295;BME280;7231;59.370;18.016;2023-07-31T11:53:28;100008.59;;;18.23;88.72
14295;BME280;7231;59.370;18.016;2023-07-31T11:55:58;100013.00;;;18.24;88.88
14295;BME280;7231;59.370;18.016;2023-07-31T11:58:27;99999.91;;;18.15;88.61
14295;BME280;7231;59.370;18.016;2023-07-31T12:00:58;100012.31;;;18.14;89.40
14295;BME280;7231;59.370;18.016;2023-07-31T12:03:26;100014.31;;;17.99;89.16
14295;BME280;7231;59.370;18.016;2023-07-31T12:05:55;99995.34;;;17.66;89.66
14295;BME280;7231;59.370;18.016;2023-07-31T12:08:24;99988.47;;;17.50;90.50
14295;BME280;7231;59.370;18.016;2023-07-31T12:10:53;100013.09;;;17.58;91.18
14295;BME280;7231;59.370;18.016;2023-07-31T12:13:23;100019.44;;;17.48;91.78
14295;BME280;7231;59.370;18.016;2023-07-31T12:15:54;100017.78;;;17.38;92.69
14295;BME280;7231;59.370;18.016;2023-07-31T12:18:25;100014.25;;;17.39;93.54
14295;BME280;7231;59.370;18.016;2023-07-31T12:20:54;100022.28;;;17.33;93.16
14295;BME280;7231;59.370;18.016;2023-07-31T12:23:24;100020.66;;;17.19;93.68
14295;BME280;7231;59.370;18.016;2023-07-31T12:26:01;99989.16;;;16.95;94.61
14295;BME280;7231;59.370;18.016;2023-07-31T12:28:29;100012.97;;;16.98;94.83
14295;BME280;7231;59.370;18.016;2023-07-31T12:30:59;100018.31;;;16.95;94.99
14295;BME280;7231;59.370;18.016;2023-07-31T12:33:33;100021.06;;;16.86;95.27
14295;BME280;7231;59.370;18.016;2023-07-31T12:36:02;100023.00;;;16.69;95.56
14295;BME280;7231;59.370;18.016;2023-07-31T12:38:31;100016.06;;;16.51;96.62
14295;BME280;7231;59.370;18.016;2023-07-31T12:40:59;100019.72;;;16.36;97.50
14295;BME280;7231;59.370;18.016;2023-07-31T12:43:27;100021.63;;;16.22;98.83
14295;BME280;7231;59.370;18.016;2023-07-31T12:45:55;100007.66;;;16.02;99.93
14295;BME280;7231;59.370;18.016;2023-07-31T12:48:23;100019.22;;;15.85;100.00
14295;BME280;7231;59.370;18.016;2023-07-31T12:50:53;100011.47;;;15.56;100.00
14295;BME280;7231;59.370;18.016;2023-07-31T12:53:21;100009.81;;;15.36;100.00
14295;BME280;7231;59.370;18.016;2023-07-31T12:55:49;100005.44;;;15.33;100.00